sensor_id;sensor_type;location;lat;lon;timestamp;P1;durP1;ratioP1;P2;durP2;ratioP2
19830;SDS011;10076;52.008;4.708;2023-04-29T00:01:54;26.00;;;8.50;;
19830;SDS011;10076;52.008;4.708;2023-04-29T00:04:23;20.00;;;9.43;;
19830;SDS011;10076;52.008;4.708;2023-04-29T00:06:51;17.03;;;8.47;;
19830;SDS011;10076;52.008;4.708;2023-04-29T00:09:17;21.80;;;8.37;;
19830;SDS011;10076;52.008;4.708;2023-04-29T00:11:42;19.23;;;7.97;;
19830;SDS011;10076;52.008;4.708;2023-04-29T00:14:07;25.50;;;9.20;;
19830;SDS011;10076;52.008;4.708;2023-04-29T00:16:33;17.63;;;8.60;;
19830;SDS011;10076;52.008;4.708;2023-04-29T00:18:58;23.70;;;8.40;;
19830;SDS011;10076;52.008;4.708;2023-04-29T00:21:23;18.97;;;9.23;;
19830;SDS011;10076;52.008;4.708;2023-04-29T00:23:51;20.03;;;8.53;;
19830;SDS011;10076;52.008;4.708;2023-04-29T00:26:16;16.40;;;8.17;;
19830;SDS011;10076;52.008;4.708;2023-04-29T00:28:42;16.00;;;7.83;;
19830;SDS011;10076;52.008;4.708;2023-04-29T00:31:07;19.90;;;8.00;;
19830;SDS011;10076;52.008;4.708;2023-04-29T00:33:32;23.20;;;9.03;;
19830;SDS011;10076;52.008;4.708;2023-04-29T00:35:58;19.07;;;8.70;;
19830;SDS011;10076;52.008;4.708;2023-04-29T00:38:23;19.13;;;9.40;;
19830;SDS011;10076;52.008;4.708;2023-04-29T00:40:48;25.20;;;9.50;;
19830;SDS011;10076;52.008;4.708;2023-04-29T00:43:14;18.53;;;8.17;;
19830;SDS011;10076;52.008;4.708;2023-04-29T00:45:39;22.53;;;8.93;;
19830;SDS011;10076;52.008;4.708;2023-04-29T00:48:04;19.63;;;8.83;;
19830;SDS011;10076;52.008;4.708;2023-04-29T00:50:30;19.87;;;9.17;;
19830;SDS011;10076;52.008;4.708;2023-04-29T00:52:55;14.67;;;8.67;;
19830;SDS011;10076;52.008;4.708;2023-04-29T00:55:21;20.93;;;9.17;;
19830;SDS011;10076;52.008;4.708;2023-04-29T00:57:47;17.20;;;7.37;;
19830;SDS011;10076;52.008;4.708;2023-04-29T01:00:16;16.63;;;8.87;;
19830;SDS011;10076;52.008;4.708;2023-04-29T01:02:42;17.77;;;7.67;;
19830;SDS011;10076;52.008;4.708;2023-04-29T01:05:09;21.37;;;9.40;;
19830;SDS011;10076;52.008;4.708;2023-04-29T01:07:47;19.23;;;8.83;;
19830;SDS011;10076;52.008;4.708;2023-04-29T01:10:28;23.93;;;9.00;;
19830;SDS011;10076;52.008;4.708;2023-04-29T01:15:46;19.03;;;9.07;;
19830;SDS011;10076;52.008;4.708;2023-04-29T01:20:52;20.73;;;8.63;;
19830;SDS011;10076;52.008;4.708;2023-04-29T01:23:17;16.67;;;8.43;;
19830;SDS011;10076;52.008;4.708;2023-04-29T01:25:43;16.70;;;8.17;;
19830;SDS011;10076;52.008;4.708;2023-04-29T01:33:43;15.43;;;8.20;;
19830;SDS011;10076;52.008;4.708;2023-04-29T01:36:30;19.93;;;9.30;;
19830;SDS011;10076;52.008;4.708;2023-04-29T01:39:26;20.57;;;8.17;;
19830;SDS011;10076;52.008;4.708;2023-04-29T01:42:28;19.40;;;8.17;;
19830;SDS011;10076;52.008;4.708;2023-04-29T01:45:10;20.03;;;8.00;;
19830;SDS011;10076;52.008;4.708;2023-04-29T01:47:38;19.50;;;9.70;;
19830;SDS011;10076;52.008;4.708;2023-04-29T01:50:05;18.13;;;8.73;;
19830;SDS011;10076;52.008;4.708;2023-04-29T01:52:31;17.07;;;7.90;;
19830;SDS011;10076;52.008;4.708;2023-04-29T01:54:56;18.37;;;8.77;;
19830;SDS011;10076;52.008;4.708;2023-04-29T01:57:21;21.03;;;9.07;;
19830;SDS011;10076;52.008;4.708;2023-04-29T01:59:47;16.73;;;8.47;;
19830;SDS011;10076;52.008;4.708;2023-04-29T02:02:12;15.73;;;8.57;;
19830;SDS011;10076;52.008;4.708;2023-04-29T02:04:39;18.37;;;8.30;;
19830;SDS011;10076;52.008;4.708;2023-04-29T02:07:04;22.27;;;8.20;;
19830;SDS011;10076;52.008;4.708;2023-04-29T02:09:30;16.90;;;8.23;;
19830;SDS011;10076;52.008;4.708;2023-04-29T02:11:55;16.43;;;8.30;;
19830;SDS011;10076;52.008;4.708;2023-04-29T02:14:20;18.17;;;8.23;;
19830;SDS011;10076;52.008;4.708;2023-04-29T02:16:46;17.00;;;7.73;;
19830;SDS011;10076;52.008;4.708;2023-04-29T02:19:11;14.73;;;7.77;;
19830;SDS011;10076;52.008;4.708;2023-04-29T02:21:37;22.40;;;8.27;;
19830;SDS011;10076;52.008;4.708;2023-04-29T02:24:04;18.37;;;7.67;;
19830;SDS011;10076;52.008;4.708;2023-04-29T02:26:30;18.20;;;8.43;;
19830;SDS011;10076;52.008;4.708;2023-04-29T02:28:55;15.23;;;8.00;;
19830;SDS011;10076;52.008;4.708;2023-04-29T02:31:21;16.77;;;8.23;;
19830;SDS011;10076;52.008;4.708;2023-04-29T02:33:46;23.10;;;7.67;;
19830;SDS011;10076;52.008;4.708;2023-04-29T02:36:12;14.63;;;7.17;;
19830;SDS011;10076;52.008;4.708;2023-04-29T02:38:38;13.93;;;7.67;;
19830;SDS011;10076;52.008;4.708;2023-04-29T02:41:03;17.20;;;7.07;;
19830;SDS011;10076;52.008;4.708;2023-04-29T02:43:28;20.53;;;7.77;;
19830;SDS011;10076;52.008;4.708;2023-04-29T02:45:56;14.17;;;8.00;;
19830;SDS011;10076;52.008;4.708;2023-04-29T02:48:21;18.87;;;8.17;;
19830;SDS011;10076;52.008;4.708;2023-04-29T02:50:47;14.70;;;7.50;;
19830;SDS011;10076;52.008;4.708;2023-04-29T02:53:13;18.77;;;7.00;;
19830;SDS011;10076;52.008;4.708;2023-04-29T02:55:38;15.77;;;7.10;;
19830;SDS011;10076;52.008;4.708;2023-04-29T02:58:03;16.57;;;7.93;;
19830;SDS011;10076;52.008;4.708;2023-04-29T03:00:29;12.93;;;7.10;;
19830;SDS011;10076;52.008;4.708;2023-04-29T03:02:54;13.43;;;6.20;;
19830;SDS011;10076;52.008;4.708;2023-04-29T03:05:19;14.67;;;6.90;;
19830;SDS011;10076;52.008;4.708;2023-04-29T03:07:45;14.27;;;7.07;;
19830;SDS011;10076;52.008;4.708;2023-04-29T03:10:10;14.60;;;7.37;;
19830;SDS011;10076;52.008;4.708;2023-04-29T03:12:36;14.70;;;8.00;;
19830;SDS011;10076;52.008;4.708;2023-04-29T03:15:01;19.07;;;7.40;;
19830;SDS011;10076;52.008;4.708;2023-04-29T03:17:27;15.23;;;7.30;;
19830;SDS011;10076;52.008;4.708;2023-04-29T03:19:52;11.80;;;6.07;;
19830;SDS011;10076;52.008;4.708;2023-04-29T03:22:18;12.60;;;6.70;;
19830;SDS011;10076;52.008;4.708;2023-04-29T03:24:43;14.30;;;6.47;;
19830;SDS011;10076;52.008;4.708;2023-04-29T03:27:08;12.63;;;6.00;;
19830;SDS011;10076;52.008;4.708;2023-04-29T03:29:35;14.43;;;6.40;;
19830;SDS011;10076;52.008;4.708;2023-04-29T03:32:00;12.77;;;6.43;;
19830;SDS011;10076;52.008;4.708;2023-04-29T03:34:27;12.60;;;6.63;;
19830;SDS011;10076;52.008;4.708;2023-04-29T03:36:53;16.50;;;6.90;;
19830;SDS011;10076;52.008;4.708;2023-04-29T03:39:19;14.00;;;6.73;;
19830;SDS011;10076;52.008;4.708;2023-04-29T03:41:45;12.53;;;7.47;;
19830;SDS011;10076;52.008;4.708;2023-04-29T03:44:11;11.27;;;5.43;;
19830;SDS011;10076;52.008;4.708;2023-04-29T03:46:36;14.80;;;6.57;;
19830;SDS011;10076;52.008;4.708;2023-04-29T03:49:02;15.13;;;6.30;;
19830;SDS011;10076;52.008;4.708;2023-04-29T03:51:27;14.10;;;6.60;;
19830;SDS011;10076;52.008;4.708;2023-04-29T03:53:53;11.33;;;5.97;;
19830;SDS011;10076;52.008;4.708;2023-04-29T03:56:23;13.07;;;6.97;;
19830;SDS011;10076;52.008;4.708;2023-04-29T03:58:50;12.50;;;6.00;;
19830;SDS011;10076;52.008;4.708;2023-04-29T04:01:15;14.83;;;7.10;;
19830;SDS011;10076;52.008;4.708;2023-04-29T04:03:41;13.53;;;5.60;;
19830;SDS011;10076;52.008;4.708;2023-04-29T04:06:07;15.43;;;6.07;;
19830;SDS011;10076;52.008;4.708;2023-04-29T04:08:32;11.23;;;5.90;;
19830;SDS011;10076;52.008;4.708;2023-04-29T04:10:58;12.50;;;6.47;;
19830;SDS011;10076;52.008;4.708;2023-04-29T04:13:27;13.00;;;6.53;;
19830;SDS011;10076;52.008;4.708;2023-04-29T04:15:55;13.30;;;5.90;;
19830;SDS011;10076;52.008;4.708;2023-04-29T04:18:21;13.70;;;5.97;;
19830;SDS011;10076;52.008;4.708;2023-04-29T04:20:46;12.60;;;6.70;;
19830;SDS011;10076;52.008;4.708;2023-04-29T04:23:12;19.87;;;6.70;;
19830;SDS011;10076;52.008;4.708;2023-04-29T04:25:37;16.17;;;6.87;;
19830;SDS011;10076;52.008;4.708;2023-04-29T04:28:03;17.13;;;6.50;;
19830;SDS011;10076;52.008;4.708;2023-04-29T04:30:28;13.43;;;5.80;;
19830;SDS011;10076;52.008;4.708;2023-04-29T04:32:54;15.33;;;6.83;;
19830;SDS011;10076;52.008;4.708;2023-04-29T04:35:19;12.00;;;6.67;;
19830;SDS011;10076;52.008;4.708;2023-04-29T04:37:44;15.40;;;7.00;;
19830;SDS011;10076;52.008;4.708;2023-04-29T04:40:10;11.87;;;6.30;;
19830;SDS011;10076;52.008;4.708;2023-04-29T04:42:36;15.70;;;6.93;;
19830;SDS011;10076;52.008;4.708;2023-04-29T04:45:01;15.07;;;6.40;;
19830;SDS011;10076;52.008;4.708;2023-04-29T04:47:27;11.97;;;6.73;;
19830;SDS011;10076;52.008;4.708;2023-04-29T04:49:52;13.77;;;6.30;;
19830;SDS011;10076;52.008;4.708;2023-04-29T04:52:21;14.13;;;6.97;;
19830;SDS011;10076;52.008;4.708;2023-04-29T04:54:46;19.70;;;6.70;;
19830;SDS011;10076;52.008;4.708;2023-04-29T04:57:12;13.13;;;7.07;;
19830;SDS011;10076;52.008;4.708;2023-04-29T04:59:37;14.37;;;7.50;;
19830;SDS011;10076;52.008;4.708;2023-04-29T05:02:02;18.67;;;7.60;;
19830;SDS011;10076;52.008;4.708;2023-04-29T05:04:28;16.23;;;7.00;;
19830;SDS011;10076;52.008;4.708;2023-04-29T05:06:53;15.73;;;6.63;;
19830;SDS011;10076;52.008;4.708;2023-04-29T05:09:18;15.40;;;7.37;;
19830;SDS011;10076;52.008;4.708;2023-04-29T05:11:44;16.43;;;6.87;;
19830;SDS011;10076;52.008;4.708;2023-04-29T05:14:10;18.30;;;6.80;;
19830;SDS011;10076;52.008;4.708;2023-04-29T05:16:35;16.23;;;6.77;;
19830;SDS011;10076;52.008;4.708;2023-04-29T05:19:01;15.73;;;7.30;;
19830;SDS011;10076;52.008;4.708;2023-04-29T05:21:26;14.40;;;7.03;;
19830;SDS011;10076;52.008;4.708;2023-04-29T05:23:51;16.13;;;7.43;;
19830;SDS011;10076;52.008;4.708;2023-04-29T05:26:16;16.43;;;6.93;;
19830;SDS011;10076;52.008;4.708;2023-04-29T05:28:42;14.30;;;7.30;;
19830;SDS011;10076;52.008;4.708;2023-04-29T05:31:07;14.03;;;7.23;;
19830;SDS011;10076;52.008;4.708;2023-04-29T05:33:33;16.77;;;6.97;;
19830;SDS011;10076;52.008;4.708;2023-04-29T05:35:58;16.10;;;6.63;;
19830;SDS011;10076;52.008;4.708;2023-04-29T05:38:24;15.03;;;6.17;;
19830;SDS011;10076;52.008;4.708;2023-04-29T05:40:53;19.40;;;7.63;;
19830;SDS011;10076;52.008;4.708;2023-04-29T05:43:21;13.93;;;6.33;;
19830;SDS011;10076;52.008;4.708;2023-04-29T05:45:47;14.83;;;7.27;;
19830;SDS011;10076;52.008;4.708;2023-04-29T05:48:13;11.43;;;6.50;;
19830;SDS011;10076;52.008;4.708;2023-04-29T05:50:38;16.33;;;6.80;;
19830;SDS011;10076;52.008;4.708;2023-04-29T05:53:03;16.60;;;7.37;;
19830;SDS011;10076;52.008;4.708;2023-04-29T05:55:29;18.07;;;7.10;;
19830;SDS011;10076;52.008;4.708;2023-04-29T05:57:54;15.87;;;7.07;;
19830;SDS011;10076;52.008;4.708;2023-04-29T06:00:20;17.00;;;7.93;;
19830;SDS011;10076;52.008;4.708;2023-04-29T06:02:45;13.90;;;6.67;;
19830;SDS011;10076;52.008;4.708;2023-04-29T06:05:10;16.23;;;7.03;;
19830;SDS011;10076;52.008;4.708;2023-04-29T06:07:36;17.27;;;7.07;;
19830;SDS011;10076;52.008;4.708;2023-04-29T06:10:01;14.10;;;6.50;;
19830;SDS011;10076;52.008;4.708;2023-04-29T06:12:26;11.97;;;6.30;;
19830;SDS011;10076;52.008;4.708;2023-04-29T06:14:52;14.10;;;6.87;;
19830;SDS011;10076;52.008;4.708;2023-04-29T06:17:20;16.10;;;6.50;;
19830;SDS011;10076;52.008;4.708;2023-04-29T06:19:45;14.17;;;6.37;;
19830;SDS011;10076;52.008;4.708;2023-04-29T06:22:11;18.13;;;7.23;;
19830;SDS011;10076;52.008;4.708;2023-04-29T06:24:36;17.85;;;6.80;;
19830;SDS011;10076;52.008;4.708;2023-04-29T06:27:01;14.20;;;6.53;;
19830;SDS011;10076;52.008;4.708;2023-04-29T06:29:28;13.50;;;6.43;;
19830;SDS011;10076;52.008;4.708;2023-04-29T06:31:53;13.57;;;6.97;;
19830;SDS011;10076;52.008;4.708;2023-04-29T06:34:20;19.42;;;6.70;;
19830;SDS011;10076;52.008;4.708;2023-04-29T06:36:45;11.50;;;5.40;;
19830;SDS011;10076;52.008;4.708;2023-04-29T06:39:10;13.20;;;5.70;;
19830;SDS011;10076;52.008;4.708;2023-04-29T06:41:36;18.35;;;6.75;;
19830;SDS011;10076;52.008;4.708;2023-04-29T06:44:01;14.38;;;6.63;;
19830;SDS011;10076;52.008;4.708;2023-04-29T06:46:27;14.43;;;6.30;;
19830;SDS011;10076;52.008;4.708;2023-04-29T06:48:53;17.27;;;6.67;;
19830;SDS011;10076;52.008;4.708;2023-04-29T06:51:19;13.05;;;6.28;;
19830;SDS011;10076;52.008;4.708;2023-04-29T06:53:44;12.98;;;6.55;;
19830;SDS011;10076;52.008;4.708;2023-04-29T06:56:10;16.23;;;6.70;;
19830;SDS011;10076;52.008;4.708;2023-04-29T06:58:35;12.65;;;6.03;;
19830;SDS011;10076;52.008;4.708;2023-04-29T07:01:01;13.90;;;6.05;;
19830;SDS011;10076;52.008;4.708;2023-04-29T07:03:28;10.75;;;5.88;;
19830;SDS011;10076;52.008;4.708;2023-04-29T07:05:53;10.85;;;5.75;;
19830;SDS011;10076;52.008;4.708;2023-04-29T07:08:19;10.20;;;5.53;;
19830;SDS011;10076;52.008;4.708;2023-04-29T07:10:45;8.80;;;5.43;;
19830;SDS011;10076;52.008;4.708;2023-04-29T07:13:17;7.78;;;4.68;;
19830;SDS011;10076;52.008;4.708;2023-04-29T07:15:43;13.40;;;5.47;;
19830;SDS011;10076;52.008;4.708;2023-04-29T07:18:08;11.82;;;5.43;;
19830;SDS011;10076;52.008;4.708;2023-04-29T07:20:35;10.25;;;5.30;;
19830;SDS011;10076;52.008;4.708;2023-04-29T07:23:00;10.90;;;5.82;;
19830;SDS011;10076;52.008;4.708;2023-04-29T07:25:26;10.90;;;5.20;;
19830;SDS011;10076;52.008;4.708;2023-04-29T07:27:53;10.25;;;5.03;;
19830;SDS011;10076;52.008;4.708;2023-04-29T07:30:19;10.63;;;6.10;;
19830;SDS011;10076;52.008;4.708;2023-04-29T07:32:44;10.90;;;5.50;;
19830;SDS011;10076;52.008;4.708;2023-04-29T07:35:09;9.20;;;4.85;;
19830;SDS011;10076;52.008;4.708;2023-04-29T07:37:34;7.68;;;4.57;;
19830;SDS011;10076;52.008;4.708;2023-04-29T07:40:00;10.15;;;5.30;;
19830;SDS011;10076;52.008;4.708;2023-04-29T07:42:25;10.90;;;4.85;;
19830;SDS011;10076;52.008;4.708;2023-04-29T07:44:50;9.63;;;4.93;;
19830;SDS011;10076;52.008;4.708;2023-04-29T07:47:15;11.18;;;4.80;;
19830;SDS011;10076;52.008;4.708;2023-04-29T07:49:41;9.27;;;4.63;;
19830;SDS011;10076;52.008;4.708;2023-04-29T07:52:07;12.85;;;4.40;;
19830;SDS011;10076;52.008;4.708;2023-04-29T07:54:34;8.02;;;4.68;;
19830;SDS011;10076;52.008;4.708;2023-04-29T07:57:03;11.55;;;5.50;;
19830;SDS011;10076;52.008;4.708;2023-04-29T07:59:31;11.63;;;4.60;;
19830;SDS011;10076;52.008;4.708;2023-04-29T08:01:57;10.88;;;5.22;;
19830;SDS011;10076;52.008;4.708;2023-04-29T08:04:23;10.32;;;4.88;;
19830;SDS011;10076;52.008;4.708;2023-04-29T08:06:48;11.57;;;5.63;;
19830;SDS011;10076;52.008;4.708;2023-04-29T08:09:14;9.57;;;4.47;;
19830;SDS011;10076;52.008;4.708;2023-04-29T08:11:40;10.30;;;4.78;;
19830;SDS011;10076;52.008;4.708;2023-04-29T08:14:05;9.07;;;4.53;;
19830;SDS011;10076;52.008;4.708;2023-04-29T08:16:31;9.82;;;4.38;;
19830;SDS011;10076;52.008;4.708;2023-04-29T08:18:56;7.85;;;4.38;;
19830;SDS011;10076;52.008;4.708;2023-04-29T08:21:22;11.48;;;4.57;;
19830;SDS011;10076;52.008;4.708;2023-04-29T08:23:47;9.52;;;4.57;;
19830;SDS011;10076;52.008;4.708;2023-04-29T08:26:13;8.27;;;4.53;;
19830;SDS011;10076;52.008;4.708;2023-04-29T08:28:38;7.03;;;4.10;;
19830;SDS011;10076;52.008;4.708;2023-04-29T08:31:04;6.03;;;3.80;;
19830;SDS011;10076;52.008;4.708;2023-04-29T08:33:35;8.00;;;3.83;;
19830;SDS011;10076;52.008;4.708;2023-04-29T08:36:01;9.77;;;5.00;;
19830;SDS011;10076;52.008;4.708;2023-04-29T08:38:30;6.53;;;4.00;;
19830;SDS011;10076;52.008;4.708;2023-04-29T08:40:56;7.63;;;4.25;;
19830;SDS011;10076;52.008;4.708;2023-04-29T08:43:21;8.10;;;4.85;;
19830;SDS011;10076;52.008;4.708;2023-04-29T08:45:47;8.48;;;4.55;;
19830;SDS011;10076;52.008;4.708;2023-04-29T08:48:14;7.45;;;4.28;;
19830;SDS011;10076;52.008;4.708;2023-04-29T08:50:41;6.75;;;4.35;;
19830;SDS011;10076;52.008;4.708;2023-04-29T08:53:07;10.07;;;4.28;;
19830;SDS011;10076;52.008;4.708;2023-04-29T08:55:38;7.88;;;4.28;;
19830;SDS011;10076;52.008;4.708;2023-04-29T08:58:08;6.97;;;4.20;;
19830;SDS011;10076;52.008;4.708;2023-04-29T09:00:34;9.65;;;5.07;;
19830;SDS011;10076;52.008;4.708;2023-04-29T09:03:03;8.75;;;5.03;;
19830;SDS011;10076;52.008;4.708;2023-04-29T09:05:37;7.60;;;4.70;;
19830;SDS011;10076;52.008;4.708;2023-04-29T09:08:06;6.72;;;4.43;;
19830;SDS011;10076;52.008;4.708;2023-04-29T09:10:32;11.45;;;4.63;;
19830;SDS011;10076;52.008;4.708;2023-04-29T09:13:01;8.07;;;4.43;;
19830;SDS011;10076;52.008;4.708;2023-04-29T09:15:26;8.52;;;4.60;;
19830;SDS011;10076;52.008;4.708;2023-04-29T09:17:52;8.70;;;4.57;;
19830;SDS011;10076;52.008;4.708;2023-04-29T09:22:46;9.23;;;4.13;;
19830;SDS011;10076;52.008;4.708;2023-04-29T09:25:15;9.50;;;4.32;;
19830;SDS011;10076;52.008;4.708;2023-04-29T09:27:40;11.90;;;4.68;;
19830;SDS011;10076;52.008;4.708;2023-04-29T09:30:07;10.05;;;4.45;;
19830;SDS011;10076;52.008;4.708;2023-04-29T09:32:32;6.78;;;4.07;;
19830;SDS011;10076;52.008;4.708;2023-04-29T09:34:58;8.07;;;4.00;;
19830;SDS011;10076;52.008;4.708;2023-04-29T09:37:26;6.93;;;4.57;;
19830;SDS011;10076;52.008;4.708;2023-04-29T09:39:52;6.95;;;4.60;;
19830;SDS011;10076;52.008;4.708;2023-04-29T09:42:18;8.38;;;4.88;;
19830;SDS011;10076;52.008;4.708;2023-04-29T09:44:43;6.72;;;4.28;;
19830;SDS011;10076;52.008;4.708;2023-04-29T09:47:09;7.30;;;4.65;;
19830;SDS011;10076;52.008;4.708;2023-04-29T09:49:38;7.25;;;4.72;;
19830;SDS011;10076;52.008;4.708;2023-04-29T09:52:10;6.80;;;4.45;;
19830;SDS011;10076;52.008;4.708;2023-04-29T09:54:38;6.40;;;4.30;;
19830;SDS011;10076;52.008;4.708;2023-04-29T09:57:05;8.20;;;4.32;;
19830;SDS011;10076;52.008;4.708;2023-04-29T09:59:36;5.88;;;4.38;;
19830;SDS011;10076;52.008;4.708;2023-04-29T10:02:12;9.20;;;5.05;;
19830;SDS011;10076;52.008;4.708;2023-04-29T10:04:43;7.28;;;4.90;;
19830;SDS011;10076;52.008;4.708;2023-04-29T10:07:13;9.52;;;5.18;;
19830;SDS011;10076;52.008;4.708;2023-04-29T10:09:41;8.63;;;5.03;;
19830;SDS011;10076;52.008;4.708;2023-04-29T10:12:09;6.28;;;4.25;;
19830;SDS011;10076;52.008;4.708;2023-04-29T10:14:38;8.68;;;4.90;;
19830;SDS011;10076;52.008;4.708;2023-04-29T10:17:21;7.15;;;4.55;;
19830;SDS011;10076;52.008;4.708;2023-04-29T10:19:52;7.95;;;5.30;;
19830;SDS011;10076;52.008;4.708;2023-04-29T10:22:28;8.57;;;4.95;;
19830;SDS011;10076;52.008;4.708;2023-04-29T10:25:14;7.88;;;4.65;;
19830;SDS011;10076;52.008;4.708;2023-04-29T10:27:41;5.70;;;4.25;;
19830;SDS011;10076;52.008;4.708;2023-04-29T10:30:08;7.55;;;4.60;;
19830;SDS011;10076;52.008;4.708;2023-04-29T10:32:39;6.55;;;4.70;;
19830;SDS011;10076;52.008;4.708;2023-04-29T10:35:06;7.47;;;4.78;;
19830;SDS011;10076;52.008;4.708;2023-04-29T10:37:34;7.75;;;4.60;;
19830;SDS011;10076;52.008;4.708;2023-04-29T10:40:11;7.72;;;4.60;;
19830;SDS011;10076;52.008;4.708;2023-04-29T10:42:45;6.80;;;4.38;;
19830;SDS011;10076;52.008;4.708;2023-04-29T10:45:24;7.80;;;4.90;;
19830;SDS011;10076;52.008;4.708;2023-04-29T10:50:27;5.35;;;3.53;;
19830;SDS011;10076;52.008;4.708;2023-04-29T10:52:55;8.23;;;4.28;;
19830;SDS011;10076;52.008;4.708;2023-04-29T10:55:22;5.65;;;3.85;;
19830;SDS011;10076;52.008;4.708;2023-04-29T10:57:47;7.22;;;3.53;;
19830;SDS011;10076;52.008;4.708;2023-04-29T11:00:46;6.32;;;4.55;;
19830;SDS011;10076;52.008;4.708;2023-04-29T11:03:05;6.63;;;4.65;;
19830;SDS011;10076;52.008;4.708;2023-04-29T11:05:31;7.32;;;5.00;;
19830;SDS011;10076;52.008;4.708;2023-04-29T11:11:09;9.00;;;4.30;;
19830;SDS011;10076;52.008;4.708;2023-04-29T11:13:37;6.50;;;3.72;;
19830;SDS011;10076;52.008;4.708;2023-04-29T11:16:07;7.20;;;4.40;;
19830;SDS011;10076;52.008;4.708;2023-04-29T11:18:34;4.95;;;3.67;;
19830;SDS011;10076;52.008;4.708;2023-04-29T11:23:33;5.95;;;3.80;;
19830;SDS011;10076;52.008;4.708;2023-04-29T11:26:02;6.95;;;3.85;;
19830;SDS011;10076;52.008;4.708;2023-04-29T11:28:28;4.90;;;3.58;;
19830;SDS011;10076;52.008;4.708;2023-04-29T11:30:55;8.38;;;3.80;;
19830;SDS011;10076;52.008;4.708;2023-04-29T11:33:21;4.43;;;3.78;;
19830;SDS011;10076;52.008;4.708;2023-04-29T11:35:47;5.35;;;3.83;;
19830;SDS011;10076;52.008;4.708;2023-04-29T11:38:13;5.80;;;4.10;;
19830;SDS011;10076;52.008;4.708;2023-04-29T11:40:47;5.68;;;4.05;;
19830;SDS011;10076;52.008;4.708;2023-04-29T11:43:17;6.55;;;4.35;;
19830;SDS011;10076;52.008;4.708;2023-04-29T11:45:45;6.10;;;4.00;;
19830;SDS011;10076;52.008;4.708;2023-04-29T11:48:24;7.15;;;4.05;;
19830;SDS011;10076;52.008;4.708;2023-04-29T11:50:51;6.53;;;4.43;;
19830;SDS011;10076;52.008;4.708;2023-04-29T11:53:21;5.15;;;4.05;;
19830;SDS011;10076;52.008;4.708;2023-04-29T11:55:49;4.65;;;3.70;;
19830;SDS011;10076;52.008;4.708;2023-04-29T11:58:16;6.60;;;3.70;;
19830;SDS011;10076;52.008;4.708;2023-04-29T12:00:42;5.43;;;3.83;;
19830;SDS011;10076;52.008;4.708;2023-04-29T12:03:12;5.40;;;4.30;;
19830;SDS011;10076;52.008;4.708;2023-04-29T12:05:44;5.82;;;3.70;;
19830;SDS011;10076;52.008;4.708;2023-04-29T12:08:10;4.60;;;3.85;;
19830;SDS011;10076;52.008;4.708;2023-04-29T12:10:36;4.97;;;3.90;;
19830;SDS011;10076;52.008;4.708;2023-04-29T12:13:02;4.05;;;3.58;;
19830;SDS011;10076;52.008;4.708;2023-04-29T12:15:28;5.72;;;3.80;;
19830;SDS011;10076;52.008;4.708;2023-04-29T12:17:54;5.82;;;3.80;;
19830;SDS011;10076;52.008;4.708;2023-04-29T12:20:20;6.38;;;3.60;;
19830;SDS011;10076;52.008;4.708;2023-04-29T12:22:45;6.07;;;3.63;;
19830;SDS011;10076;52.008;4.708;2023-04-29T12:25:11;6.15;;;4.28;;
19830;SDS011;10076;52.008;4.708;2023-04-29T12:27:38;4.80;;;4.22;;
19830;SDS011;10076;52.008;4.708;2023-04-29T12:30:06;7.03;;;4.07;;
19830;SDS011;10076;52.008;4.708;2023-04-29T12:32:33;6.90;;;4.10;;
19830;SDS011;10076;52.008;4.708;2023-04-29T12:34:58;5.63;;;4.63;;
19830;SDS011;10076;52.008;4.708;2023-04-29T12:37:24;4.88;;;4.38;;
19830;SDS011;10076;52.008;4.708;2023-04-29T12:39:50;6.38;;;4.20;;
19830;SDS011;10076;52.008;4.708;2023-04-29T12:42:16;6.25;;;4.60;;
19830;SDS011;10076;52.008;4.708;2023-04-29T12:44:45;6.10;;;4.63;;
19830;SDS011;10076;52.008;4.708;2023-04-29T12:47:11;4.55;;;3.80;;
19830;SDS011;10076;52.008;4.708;2023-04-29T12:49:39;5.85;;;4.35;;
19830;SDS011;10076;52.008;4.708;2023-04-29T12:52:07;6.85;;;4.88;;
19830;SDS011;10076;52.008;4.708;2023-04-29T12:54:34;6.97;;;4.63;;
19830;SDS011;10076;52.008;4.708;2023-04-29T12:57:07;6.03;;;5.10;;
19830;SDS011;10076;52.008;4.708;2023-04-29T12:59:33;5.70;;;4.60;;
19830;SDS011;10076;52.008;4.708;2023-04-29T13:01:58;6.50;;;4.25;;
19830;SDS011;10076;52.008;4.708;2023-04-29T13:04:23;7.00;;;4.70;;
19830;SDS011;10076;52.008;4.708;2023-04-29T13:06:48;6.93;;;4.85;;
19830;SDS011;10076;52.008;4.708;2023-04-29T13:09:18;6.45;;;5.03;;
19830;SDS011;10076;52.008;4.708;2023-04-29T13:11:44;8.23;;;5.30;;
19830;SDS011;10076;52.008;4.708;2023-04-29T13:14:09;6.15;;;4.85;;
19830;SDS011;10076;52.008;4.708;2023-04-29T13:16:35;6.38;;;4.70;;
19830;SDS011;10076;52.008;4.708;2023-04-29T13:19:00;7.55;;;4.88;;
19830;SDS011;10076;52.008;4.708;2023-04-29T13:21:26;7.97;;;5.15;;
19830;SDS011;10076;52.008;4.708;2023-04-29T13:23:52;8.40;;;4.95;;
19830;SDS011;10076;52.008;4.708;2023-04-29T13:26:18;8.63;;;5.60;;
19830;SDS011;10076;52.008;4.708;2023-04-29T13:28:43;8.07;;;5.57;;
19830;SDS011;10076;52.008;4.708;2023-04-29T13:31:08;9.15;;;5.13;;
19830;SDS011;10076;52.008;4.708;2023-04-29T13:33:33;6.43;;;4.57;;
19830;SDS011;10076;52.008;4.708;2023-04-29T13:35:59;10.48;;;5.05;;
19830;SDS011;10076;52.008;4.708;2023-04-29T13:38:24;10.20;;;5.38;;
19830;SDS011;10076;52.008;4.708;2023-04-29T13:40:50;8.40;;;4.93;;
19830;SDS011;10076;52.008;4.708;2023-04-29T13:43:15;6.82;;;4.35;;
19830;SDS011;10076;52.008;4.708;2023-04-29T13:45:41;7.40;;;4.53;;
19830;SDS011;10076;52.008;4.708;2023-04-29T13:48:06;7.28;;;4.75;;
19830;SDS011;10076;52.008;4.708;2023-04-29T13:50:32;9.18;;;4.65;;
19830;SDS011;10076;52.008;4.708;2023-04-29T13:52:57;8.65;;;4.68;;
19830;SDS011;10076;52.008;4.708;2023-04-29T13:55:23;7.53;;;5.22;;
19830;SDS011;10076;52.008;4.708;2023-04-29T13:57:48;8.38;;;4.85;;
19830;SDS011;10076;52.008;4.708;2023-04-29T14:00:14;10.52;;;4.57;;
19830;SDS011;10076;52.008;4.708;2023-04-29T14:02:40;7.07;;;4.78;;
19830;SDS011;10076;52.008;4.708;2023-04-29T14:05:06;5.60;;;4.28;;
19830;SDS011;10076;52.008;4.708;2023-04-29T14:07:31;8.60;;;4.53;;
19830;SDS011;10076;52.008;4.708;2023-04-29T14:09:56;6.70;;;4.75;;
19830;SDS011;10076;52.008;4.708;2023-04-29T14:12:21;7.53;;;4.43;;
19830;SDS011;10076;52.008;4.708;2023-04-29T14:14:47;8.82;;;4.72;;
19830;SDS011;10076;52.008;4.708;2023-04-29T14:17:12;10.18;;;4.95;;
19830;SDS011;10076;52.008;4.708;2023-04-29T14:19:38;9.18;;;4.65;;
19830;SDS011;10076;52.008;4.708;2023-04-29T14:22:03;8.35;;;4.45;;
19830;SDS011;10076;52.008;4.708;2023-04-29T14:24:28;7.25;;;4.45;;
19830;SDS011;10076;52.008;4.708;2023-04-29T14:26:53;6.30;;;3.90;;
19830;SDS011;10076;52.008;4.708;2023-04-29T14:29:19;6.50;;;3.90;;
19830;SDS011;10076;52.008;4.708;2023-04-29T14:31:44;9.52;;;4.32;;
19830;SDS011;10076;52.008;4.708;2023-04-29T14:34:10;10.07;;;4.60;;
19830;SDS011;10076;52.008;4.708;2023-04-29T14:36:35;6.50;;;3.78;;
19830;SDS011;10076;52.008;4.708;2023-04-29T14:39:01;6.75;;;3.75;;
19830;SDS011;10076;52.008;4.708;2023-04-29T14:41:27;7.05;;;3.85;;
19830;SDS011;10076;52.008;4.708;2023-04-29T14:43:53;6.88;;;3.85;;
19830;SDS011;10076;52.008;4.708;2023-04-29T14:46:18;7.38;;;4.05;;
19830;SDS011;10076;52.008;4.708;2023-04-29T14:48:44;6.90;;;4.00;;
19830;SDS011;10076;52.008;4.708;2023-04-29T14:51:10;5.88;;;4.00;;
19830;SDS011;10076;52.008;4.708;2023-04-29T14:53:35;6.28;;;3.58;;
19830;SDS011;10076;52.008;4.708;2023-04-29T14:56:01;5.38;;;3.75;;
19830;SDS011;10076;52.008;4.708;2023-04-29T14:58:27;6.30;;;3.88;;
19830;SDS011;10076;52.008;4.708;2023-04-29T15:00:52;7.90;;;4.45;;